createdAt,value
2023-02-26T00:00:22.171Z,18.87
2023-02-26T00:02:52.349Z,15.27
2023-02-26T00:05:21.642Z,17.27
2023-02-26T00:07:51.731Z,19.65
2023-02-26T00:10:21.232Z,17.55
2023-02-26T00:12:51.130Z,17.75
2023-02-26T00:15:21.282Z,13.88
2023-02-26T00:18:02.500Z,21.85
2023-02-26T00:20:32.201Z,14.87
2023-02-26T00:23:01.999Z,13.98
2023-02-26T00:25:31.971Z,13.45
2023-02-26T00:28:04.507Z,14.20
2023-02-26T00:30:34.744Z,19.10
2023-02-26T00:33:05.047Z,15.25
2023-02-26T00:35:35.844Z,13.70
2023-02-26T00:38:11.504Z,16.20
2023-02-26T00:40:49.624Z,18.12
2023-02-26T00:43:25.379Z,15.45
2023-02-26T00:45:56.946Z,12.63
2023-02-26T00:49:06.682Z,14.87
2023-02-26T00:51:49.048Z,19.25
2023-02-26T00:54:24.879Z,12.93
2023-02-26T00:56:58.245Z,21.92
2023-02-26T00:59:28.442Z,17.98
2023-02-26T01:01:58.324Z,17.05
2023-02-26T01:04:28.241Z,16.85
2023-02-26T01:06:58.989Z,19.45
2023-02-26T01:09:31.749Z,15.88
2023-02-26T01:12:05.805Z,19.05
2023-02-26T01:14:37.252Z,16.83
2023-02-26T01:17:19.736Z,20.83
2023-02-26T01:20:06.380Z,17.05
2023-02-26T01:23:05.276Z,13.10
2023-02-26T01:25:55.773Z,11.90
2023-02-26T01:28:27.029Z,14.75
2023-02-26T01:31:05.762Z,10.93
2023-02-26T01:33:48.181Z,12.63
2023-02-26T01:36:28.626Z,15.13
2023-02-26T01:39:21.811Z,9.38
2023-02-26T01:41:56.224Z,15.37
2023-02-26T01:44:31.066Z,10.70
2023-02-26T01:47:06.694Z,11.07
2023-02-26T01:49:37.092Z,9.15
2023-02-26T01:52:27.484Z,15.38
2023-02-26T01:54:57.155Z,17.37
2023-02-26T01:57:26.771Z,20.95
2023-02-26T01:59:58.806Z,12.90
2023-02-26T02:02:28.967Z,9.37
2023-02-26T02:05:04.878Z,10.35
2023-02-26T02:07:34.443Z,12.55
2023-02-26T02:10:04.742Z,12.43
2023-02-26T02:12:46.320Z,18.65
2023-02-26T02:15:26.919Z,20.17
2023-02-26T02:18:23.020Z,18.35
2023-02-26T02:21:08.792Z,19.77
2023-02-26T02:24:01.096Z,20.48
2023-02-26T02:26:34.527Z,16.27
2023-02-26T02:29:44.527Z,10.48
2023-02-26T02:32:27.311Z,14.35
2023-02-26T02:35:22.265Z,19.60
2023-02-26T02:38:07.573Z,17.42
2023-02-26T02:40:42.394Z,13.68
2023-02-26T02:43:21.237Z,10.43
2023-02-26T02:45:56.457Z,12.57
2023-02-26T02:48:33.390Z,10.88
2023-02-26T02:51:11.244Z,10.77
2023-02-26T02:53:44.533Z,9.80
2023-02-26T02:56:20.146Z,9.45
2023-02-26T02:58:57.757Z,7.22
2023-02-26T03:01:29.809Z,11.02
2023-02-26T03:04:17.439Z,7.78
2023-02-26T03:06:47.678Z,9.77
2023-02-26T03:09:20.473Z,10.30
2023-02-26T03:11:50.166Z,6.22
2023-02-26T03:14:20.153Z,7.28
2023-02-26T03:17:24.090Z,10.38
2023-02-26T03:19:55.565Z,6.62
2023-02-26T03:22:53.232Z,6.28
2023-02-26T03:25:29.876Z,4.53
2023-02-26T03:28:09.848Z,8.88
2023-02-26T03:30:49.355Z,4.12
2023-02-26T03:33:27.296Z,6.78
2023-02-26T03:36:19.569Z,4.43
2023-02-26T03:39:21.804Z,6.25
2023-02-26T03:42:04.426Z,8.40
2023-02-26T03:44:43.160Z,6.62
2023-02-26T03:47:16.292Z,4.57
2023-02-26T03:50:02.881Z,5.25
2023-02-26T03:52:36.750Z,3.87
2023-02-26T03:55:15.409Z,8.38
2023-02-26T03:57:47.807Z,7.03
2023-02-26T04:00:19.089Z,6.15
2023-02-26T04:03:02.451Z,4.68
2023-02-26T04:05:38.520Z,5.22
2023-02-26T04:08:08.970Z,4.12
2023-02-26T04:10:53.739Z,6.43
2023-02-26T04:13:23.845Z,6.62
2023-02-26T04:15:53.553Z,6.47
2023-02-26T04:18:22.976Z,3.22
2023-02-26T04:20:53.047Z,5.25
2023-02-26T04:23:22.830Z,3.95
2023-02-26T04:25:52.774Z,3.40
2023-02-26T04:28:22.199Z,6.22
2023-02-26T04:30:52.579Z,3.45
2023-02-26T04:33:24.026Z,3.97
2023-02-26T04:35:54.687Z,5.75
2023-02-26T04:38:25.144Z,4.82
2023-02-26T04:40:55.059Z,5.32
2023-02-26T04:43:25.438Z,7.15
2023-02-26T04:45:55.126Z,5.60
2023-02-26T04:48:24.869Z,5.95
2023-02-26T04:50:54.348Z,8.45
2023-02-26T04:53:26.543Z,5.60
2023-02-26T04:55:58.322Z,5.65
2023-02-26T04:58:27.790Z,7.20
2023-02-26T05:00:59.733Z,10.10
2023-02-26T05:03:29.696Z,5.82
2023-02-26T05:06:00.279Z,9.65
2023-02-26T05:08:29.826Z,10.48
2023-02-26T05:10:59.949Z,7.37
2023-02-26T05:13:29.718Z,5.30
2023-02-26T05:15:59.090Z,10.98
2023-02-26T05:18:28.411Z,7.32
2023-02-26T05:20:59.703Z,6.25
2023-02-26T05:23:29.770Z,6.45
2023-02-26T05:26:00.422Z,6.80
2023-02-26T05:28:31.970Z,9.70
2023-02-26T05:31:01.588Z,6.47
2023-02-26T05:33:31.104Z,6.28
2023-02-26T05:36:04.079Z,6.78
2023-02-26T05:38:34.297Z,3.97
2023-02-26T05:41:06.552Z,4.45
2023-02-26T05:43:36.776Z,3.55
2023-02-26T05:46:07.203Z,10.57
2023-02-26T05:48:39.262Z,3.37
2023-02-26T05:51:08.652Z,3.15
2023-02-26T05:53:38.391Z,3.20
2023-02-26T05:56:08.028Z,2.60
2023-02-26T05:58:37.447Z,2.35
2023-02-26T06:01:07.476Z,3.05
2023-02-26T06:03:45.149Z,2.75
2023-02-26T06:06:19.182Z,1.40
2023-02-26T06:08:49.954Z,2.28
2023-02-26T06:11:19.365Z,2.35
2023-02-26T06:13:49.900Z,1.75
2023-02-26T06:16:21.158Z,1.50
2023-02-26T06:18:51.752Z,2.03
2023-02-26T06:21:21.068Z,1.60
2023-02-26T06:23:50.856Z,2.40
2023-02-26T06:26:22.123Z,2.12
2023-02-26T06:28:53.321Z,2.45
2023-02-26T06:31:23.236Z,3.10
2023-02-26T06:33:52.638Z,1.58
2023-02-26T06:36:22.612Z,2.08
2023-02-26T06:38:52.103Z,3.08
2023-02-26T06:41:21.760Z,1.50
2023-02-26T06:43:51.693Z,1.83
2023-02-26T06:46:24.230Z,1.75
2023-02-26T06:48:54.336Z,1.62
2023-02-26T06:51:23.620Z,1.62
2023-02-26T06:53:53.045Z,2.05
2023-02-26T06:56:25.925Z,1.80
2023-02-26T06:58:56.447Z,2.25
2023-02-26T07:01:26.732Z,1.92
2023-02-26T07:03:56.071Z,1.25
2023-02-26T07:06:27.635Z,0.80
2023-02-26T07:08:57.339Z,2.05
2023-02-26T07:11:27.832Z,1.98
2023-02-26T07:13:58.113Z,1.55
2023-02-26T07:16:30.171Z,1.27
2023-02-26T07:19:03.468Z,2.08
2023-02-26T07:21:33.966Z,1.33
2023-02-26T07:24:03.527Z,1.12
2023-02-26T07:26:33.828Z,1.45
2023-02-26T07:29:04.693Z,0.90
2023-02-26T07:31:38.043Z,1.58
2023-02-26T07:34:09.044Z,0.70
2023-02-26T07:36:39.138Z,2.12
2023-02-26T07:39:10.049Z,0.95
2023-02-26T07:41:40.723Z,1.20
2023-02-26T07:44:18.595Z,1.42
2023-02-26T07:46:48.702Z,1.25
2023-02-26T07:49:21.403Z,2.45
2023-02-26T07:51:50.978Z,1.52
2023-02-26T07:54:20.595Z,1.25
2023-02-26T07:56:51.427Z,1.40
2023-02-26T07:59:21.051Z,1.85
2023-02-26T08:01:54.404Z,1.08
2023-02-26T08:04:24.524Z,1.25
2023-02-26T08:06:55.506Z,2.85
2023-02-26T08:09:26.931Z,2.00
2023-02-26T08:11:56.730Z,1.45
2023-02-26T08:14:28.241Z,1.35
2023-02-26T08:16:58.056Z,2.83
2023-02-26T08:19:28.470Z,1.77
2023-02-26T08:21:58.463Z,0.73
2023-02-26T08:24:28.434Z,1.55
2023-02-26T08:26:58.341Z,2.10
2023-02-26T08:29:29.939Z,1.52
2023-02-26T08:32:00.301Z,1.50
2023-02-26T08:34:30.776Z,1.17
2023-02-26T08:37:00.562Z,1.20
2023-02-26T08:39:34.044Z,1.08
2023-02-26T08:44:36.053Z,1.50
2023-02-26T08:47:06.492Z,1.55
2023-02-26T08:49:37.498Z,1.02
2023-02-26T08:52:07.741Z,1.73
2023-02-26T08:54:38.566Z,3.83
2023-02-26T08:57:08.344Z,1.12
2023-02-26T08:59:39.157Z,4.43
2023-02-26T09:02:09.035Z,2.85
2023-02-26T09:04:39.316Z,1.55
2023-02-26T09:07:09.124Z,2.25
2023-02-26T09:09:39.519Z,1.67
2023-02-26T09:12:10.866Z,1.20
2023-02-26T09:14:41.260Z,1.17
2023-02-26T09:17:11.031Z,0.57
2023-02-26T09:19:40.954Z,1.10
2023-02-26T09:22:11.018Z,1.42
2023-02-26T09:24:41.398Z,0.90
2023-02-26T09:27:11.352Z,2.72
2023-02-26T09:29:42.028Z,1.87
2023-02-26T09:32:12.395Z,1.48
2023-02-26T09:34:43.537Z,3.92
2023-02-26T09:37:13.629Z,0.50
2023-02-26T09:39:44.181Z,1.58
2023-02-26T09:42:35.098Z,2.40
2023-02-26T09:45:13.618Z,2.00
2023-02-26T09:47:52.559Z,1.20
2023-02-26T09:50:30.431Z,2.35
2023-02-26T09:53:10.445Z,4.90
2023-02-26T09:55:46.366Z,2.83
2023-02-26T09:58:38.655Z,0.75
2023-02-26T10:01:30.928Z,1.73
2023-02-26T10:04:18.248Z,2.20
2023-02-26T10:06:54.412Z,1.65
2023-02-26T10:09:51.632Z,1.42
2023-02-26T10:12:26.339Z,2.05
2023-02-26T10:15:04.065Z,1.12
2023-02-26T10:17:56.516Z,2.85
2023-02-26T10:20:40.021Z,2.50
2023-02-26T10:23:23.573Z,3.03
2023-02-26T10:26:03.075Z,0.50
2023-02-26T10:28:47.226Z,1.37
2023-02-26T10:31:50.102Z,1.10
2023-02-26T10:34:36.412Z,2.78
2023-02-26T10:37:44.554Z,1.98
2023-02-26T10:40:37.854Z,2.03
2023-02-26T10:43:34.385Z,0.85
2023-02-26T10:46:31.084Z,1.98
2023-02-26T10:49:27.664Z,1.55
2023-02-26T10:51:59.995Z,2.53
2023-02-26T10:54:39.997Z,1.55
2023-02-26T10:57:22.170Z,0.70
2023-02-26T10:59:52.682Z,0.82
2023-02-26T11:02:43.237Z,1.20
2023-02-26T11:05:19.496Z,1.70
2023-02-26T11:07:53.288Z,1.23
2023-02-26T11:10:28.137Z,1.27
2023-02-26T11:12:59.793Z,1.48
2023-02-26T11:15:31.350Z,1.25
2023-02-26T11:18:03.076Z,1.67
2023-02-26T11:20:39.699Z,1.77
2023-02-26T11:23:16.374Z,0.98
2023-02-26T11:25:47.516Z,2.30
2023-02-26T11:28:32.900Z,3.65
2023-02-26T11:31:08.079Z,3.05
2023-02-26T11:33:41.854Z,1.75
2023-02-26T11:36:17.067Z,5.05
2023-02-26T11:38:53.717Z,1.83
2023-02-26T11:41:25.686Z,1.23
2023-02-26T11:44:03.782Z,1.25
2023-02-26T11:46:42.746Z,0.85
2023-02-26T11:49:16.334Z,1.40
2023-02-26T11:51:48.955Z,0.60
2023-02-26T11:54:26.312Z,1.40
2023-02-26T11:57:08.871Z,2.30
2023-02-26T11:59:42.214Z,0.62
2023-02-26T12:02:15.377Z,0.70
2023-02-26T12:04:49.081Z,1.15
2023-02-26T12:07:19.626Z,1.12
2023-02-26T12:09:54.276Z,1.17
2023-02-26T12:12:26.956Z,0.68
2023-02-26T12:15:15.480Z,1.62
2023-02-26T12:17:54.136Z,1.30
2023-02-26T12:20:34.496Z,1.12
2023-02-26T12:23:35.278Z,1.55
2023-02-26T12:26:22.135Z,1.20
2023-02-26T12:29:21.211Z,3.28
2023-02-26T12:32:09.883Z,1.17
2023-02-26T12:35:02.387Z,1.35
2023-02-26T12:40:31.937Z,0.60
2023-02-26T12:43:09.426Z,1.40
2023-02-26T12:46:03.472Z,1.20
2023-02-26T12:48:46.127Z,1.08
2023-02-26T12:51:48.401Z,1.23
2023-02-26T12:54:57.148Z,1.65
2023-02-26T12:57:55.091Z,1.35
2023-02-26T13:00:33.152Z,2.87
2023-02-26T13:03:28.493Z,2.53
2023-02-26T13:06:40.128Z,1.08
2023-02-26T13:09:27.302Z,0.65
2023-02-26T13:12:23.141Z,1.05
2023-02-26T13:15:21.500Z,0.82
2023-02-26T13:18:13.502Z,1.23
2023-02-26T13:20:57.375Z,0.90
2023-02-26T13:23:36.906Z,1.65
2023-02-26T13:26:11.774Z,1.12
2023-02-26T13:28:54.333Z,1.30
2023-02-26T13:31:37.461Z,1.45
2023-02-26T13:34:17.535Z,1.15
2023-02-26T13:36:50.341Z,1.37
2023-02-26T13:39:54.541Z,1.83
2023-02-26T13:42:48.394Z,0.88
2023-02-26T13:45:20.718Z,0.65
2023-02-26T13:48:01.500Z,1.70
2023-02-26T13:51:02.644Z,1.33
2023-02-26T13:53:47.816Z,1.85
2023-02-26T13:56:43.197Z,1.58
2023-02-26T13:59:38.245Z,1.08
2023-02-26T14:02:48.364Z,2.40
2023-02-26T14:05:56.172Z,0.73
2023-02-26T14:08:47.155Z,0.68
2023-02-26T14:11:45.261Z,1.37
2023-02-26T14:14:26.033Z,2.08
2023-02-26T14:17:13.375Z,3.03
2023-02-26T14:20:09.309Z,1.02
2023-02-26T14:22:44.822Z,1.20
2023-02-26T14:25:17.767Z,1.45
2023-02-26T14:27:50.177Z,1.10
2023-02-26T14:30:30.565Z,1.60
2023-02-26T14:33:04.241Z,1.00
2023-02-26T14:35:52.840Z,2.17
2023-02-26T14:38:33.083Z,1.08
2023-02-26T14:41:35.024Z,1.83
2023-02-26T14:44:15.326Z,1.80
2023-02-26T14:46:46.467Z,3.70
2023-02-26T14:49:26.386Z,2.37
2023-02-26T14:52:24.560Z,3.47
2023-02-26T14:55:13.006Z,4.22
2023-02-26T14:58:10.069Z,4.93
2023-02-26T15:01:04.448Z,1.52
2023-02-26T15:04:06.599Z,3.15
2023-02-26T15:07:10.653Z,3.03
2023-02-26T15:10:01.797Z,5.90
2023-02-26T15:13:12.745Z,4.70
2023-02-26T15:15:58.059Z,6.43
2023-02-26T15:19:05.328Z,5.82
2023-02-26T15:22:03.943Z,5.32
2023-02-26T15:24:38.392Z,6.57
2023-02-26T15:27:14.497Z,6.00
2023-02-26T15:29:48.205Z,6.80
2023-02-26T15:32:32.925Z,8.73
2023-02-26T15:35:19.380Z,6.10
2023-02-26T15:37:58.947Z,7.55
2023-02-26T15:40:35.878Z,7.65
2023-02-26T15:43:11.286Z,9.68
2023-02-26T15:45:47.849Z,8.70
2023-02-26T15:48:23.681Z,11.52
2023-02-26T15:51:00.047Z,8.65
2023-02-26T15:53:38.442Z,10.73
2023-02-26T15:56:30.684Z,9.27
2023-02-26T15:59:07.394Z,7.90
2023-02-26T16:01:42.436Z,10.43
2023-02-26T16:04:21.085Z,12.05
2023-02-26T16:06:57.171Z,11.90
2023-02-26T16:09:35.713Z,8.90
2023-02-26T16:12:11.249Z,10.02
2023-02-26T16:14:47.676Z,7.93
2023-02-26T16:17:30.887Z,9.85
2023-02-26T16:20:07.936Z,8.07
2023-02-26T16:22:45.100Z,11.65
2023-02-26T16:25:25.425Z,10.52
2023-02-26T16:28:03.041Z,8.93
2023-02-26T16:30:41.898Z,12.13
2023-02-26T16:33:18.095Z,8.07
2023-02-26T16:36:07.833Z,13.07
2023-02-26T16:38:58.722Z,10.60
2023-02-26T16:41:34.912Z,10.00
2023-02-26T16:44:27.988Z,11.93
2023-02-26T16:47:01.077Z,10.45
2023-02-26T16:49:37.700Z,8.75
2023-02-26T16:52:22.265Z,7.47
2023-02-26T16:55:01.663Z,6.85
2023-02-26T16:57:45.733Z,8.35
2023-02-26T17:00:31.761Z,8.48
2023-02-26T17:03:09.528Z,9.68
2023-02-26T17:05:45.700Z,9.05
2023-02-26T17:08:21.842Z,8.13
2023-02-26T17:11:09.804Z,6.47
2023-02-26T17:13:50.223Z,8.10
2023-02-26T17:19:18.335Z,8.18
2023-02-26T17:21:58.557Z,8.68
2023-02-26T17:24:34.738Z,9.65
2023-02-26T17:27:06.724Z,12.13
2023-02-26T17:29:42.192Z,7.05
2023-02-26T17:32:27.431Z,7.78
2023-02-26T17:35:04.420Z,9.90
2023-02-26T17:37:42.433Z,9.68
2023-02-26T17:40:30.019Z,8.70
2023-02-26T17:43:05.323Z,9.18
2023-02-26T17:45:38.853Z,12.13
2023-02-26T17:48:12.300Z,10.13
2023-02-26T17:50:48.338Z,11.30
2023-02-26T17:53:20.673Z,11.05
2023-02-26T17:55:57.250Z,10.15
2023-02-26T17:58:34.450Z,10.23
2023-02-26T18:01:05.436Z,10.38
2023-02-26T18:03:35.989Z,10.35
2023-02-26T18:06:07.514Z,12.27
2023-02-26T18:08:45.725Z,11.27
2023-02-26T18:11:18.488Z,9.50
2023-02-26T18:13:55.266Z,10.40
2023-02-26T18:16:34.638Z,8.18
2023-02-26T18:19:08.319Z,8.70
2023-02-26T18:21:38.907Z,10.27
2023-02-26T18:24:11.934Z,10.18
2023-02-26T18:27:02.349Z,8.18
2023-02-26T18:29:32.741Z,9.65
2023-02-26T18:32:04.315Z,10.02
2023-02-26T18:34:37.767Z,11.48
2023-02-26T18:37:16.187Z,9.50
2023-02-26T18:39:47.387Z,6.97
2023-02-26T18:42:26.283Z,9.52
2023-02-26T18:45:04.178Z,8.50
2023-02-26T18:47:36.111Z,9.65
2023-02-26T18:50:19.460Z,8.75
2023-02-26T18:53:08.277Z,9.43
2023-02-26T18:55:53.524Z,9.23
2023-02-26T18:58:28.247Z,9.02
2023-02-26T19:00:59.824Z,7.87
2023-02-26T19:03:32.706Z,8.68
2023-02-26T19:06:12.241Z,7.18
2023-02-26T19:08:49.472Z,7.78
2023-02-26T19:11:23.234Z,6.95
2023-02-26T19:13:53.534Z,9.52
2023-02-26T19:16:26.273Z,6.25
2023-02-26T19:19:32.241Z,7.75
2023-02-26T19:23:03.197Z,9.43
2023-02-26T19:25:56.792Z,8.85
2023-02-26T19:28:26.575Z,7.20
2023-02-26T19:30:56.357Z,9.90
2023-02-26T19:33:26.228Z,8.98
2023-02-26T19:36:00.052Z,7.45
2023-02-26T19:38:29.995Z,10.73
2023-02-26T19:40:59.841Z,8.98
2023-02-26T19:43:32.228Z,8.02
2023-02-26T19:46:03.347Z,9.02
2023-02-26T19:48:33.561Z,8.55
2023-02-26T19:51:05.606Z,7.35
2023-02-26T19:53:36.364Z,7.90
2023-02-26T19:56:07.585Z,8.50
2023-02-26T19:58:37.394Z,8.07
2023-02-26T20:01:08.269Z,7.22
2023-02-26T20:03:39.600Z,8.57
2023-02-26T20:06:10.885Z,9.25
2023-02-26T20:08:42.145Z,8.55
2023-02-26T20:11:15.472Z,7.85
2023-02-26T20:13:46.057Z,8.32
2023-02-26T20:16:16.507Z,8.85
2023-02-26T20:18:46.988Z,9.80
2023-02-26T20:21:17.177Z,7.05
2023-02-26T20:23:46.954Z,7.85
2023-02-26T20:26:17.072Z,7.45
2023-02-26T20:28:46.702Z,8.55
2023-02-26T20:31:16.850Z,7.47
2023-02-26T20:33:46.473Z,7.85
2023-02-26T20:36:24.866Z,5.00
2023-02-26T20:38:54.750Z,6.47
2023-02-26T20:41:24.043Z,7.32
2023-02-26T20:43:53.721Z,7.87
2023-02-26T20:46:23.220Z,7.53
2023-02-26T20:48:53.057Z,8.48
2023-02-26T20:51:22.584Z,8.48
2023-02-26T20:53:52.788Z,6.60
2023-02-26T20:56:22.288Z,9.48
2023-02-26T20:58:52.684Z,9.50
2023-02-26T21:01:21.997Z,4.45
2023-02-26T21:03:54.846Z,10.57
2023-02-26T21:06:24.088Z,7.15
2023-02-26T21:08:53.730Z,5.22
2023-02-26T21:11:22.993Z,6.72
2023-02-26T21:13:52.237Z,6.80
2023-02-26T21:16:22.230Z,7.00
2023-02-26T21:18:53.025Z,5.60
2023-02-26T21:21:23.292Z,7.37
2023-02-26T21:23:53.827Z,7.25
2023-02-26T21:26:24.039Z,8.40
2023-02-26T21:28:54.329Z,7.20
2023-02-26T21:31:24.556Z,5.68
2023-02-26T21:33:53.724Z,5.90
2023-02-26T21:36:23.047Z,6.25
2023-02-26T21:38:52.088Z,5.37
2023-02-26T21:41:22.880Z,4.82
2023-02-26T21:43:52.341Z,6.80
2023-02-26T21:46:23.372Z,7.28
2023-02-26T21:48:53.093Z,5.32
2023-02-26T21:51:22.584Z,6.18
2023-02-26T21:53:51.917Z,8.45
2023-02-26T21:56:21.454Z,7.82
2023-02-26T21:58:50.848Z,5.78
2023-02-26T22:01:20.823Z,6.00
2023-02-26T22:03:50.534Z,6.20
2023-02-26T22:06:19.772Z,4.82
2023-02-26T22:08:49.233Z,5.85
2023-02-26T22:11:18.694Z,6.45
2023-02-26T22:13:49.343Z,7.22
2023-02-26T22:16:20.067Z,9.70
2023-02-26T22:18:49.671Z,7.18
2023-02-26T22:21:19.567Z,6.40
2023-02-26T22:23:49.953Z,5.50
2023-02-26T22:26:19.578Z,8.23
2023-02-26T22:28:48.947Z,6.90
2023-02-26T22:31:18.421Z,5.57
2023-02-26T22:33:48.112Z,6.57
2023-02-26T22:36:17.392Z,7.65
2023-02-26T22:38:47.252Z,5.60
2023-02-26T22:41:16.733Z,5.05
2023-02-26T22:43:47.143Z,6.78
2023-02-26T22:46:18.007Z,8.65
2023-02-26T22:48:49.320Z,4.35
2023-02-26T22:51:19.168Z,8.38
2023-02-26T22:53:48.695Z,4.87
2023-02-26T22:56:18.387Z,3.92
2023-02-26T22:58:47.607Z,6.82
2023-02-26T23:01:17.033Z,6.35
2023-02-26T23:03:46.843Z,6.55
2023-02-26T23:06:16.139Z,6.20
2023-02-26T23:08:45.802Z,6.12
2023-02-26T23:11:15.444Z,6.15
2023-02-26T23:13:44.740Z,8.55
2023-02-26T23:16:14.908Z,7.00
2023-02-26T23:18:49.426Z,7.03
2023-02-26T23:21:19.009Z,9.73
2023-02-26T23:23:48.736Z,5.80
2023-02-26T23:26:19.037Z,4.90
2023-02-26T23:28:48.690Z,5.95
2023-02-26T23:31:17.990Z,7.28
2023-02-26T23:33:47.541Z,6.32
2023-02-26T23:36:17.289Z,5.05
2023-02-26T23:38:46.709Z,6.40
2023-02-26T23:41:16.492Z,6.65
2023-02-26T23:43:45.893Z,8.98
2023-02-26T23:46:15.791Z,5.03
2023-02-26T23:48:45.516Z,7.00
2023-02-26T23:51:14.450Z,5.97
2023-02-26T23:53:44.294Z,4.95
2023-02-26T23:56:14.482Z,6.32
2023-02-26T23:58:43.621Z,6.43
